Time;durP1;ratioP1;P1;durP2;ratioP2;P2;SDS_P1;SDS_P2;PMS_P1;PMS_P2;Temp;Humidity;BMP_temperature;BMP_pressure;BME280_temperature;BME280_humidity;BME280_pressure;Samples;Min_cycle;Max_cycle;Signal;HPM_P1;HPM_P2
2022/03/19 00:02:08;;;;;;;;;;;;;;;;;;5114721;28;20452;-76
2022/03/19 00:04:34;;;;;;;;;;;;;;;;;;5114720;28;20330;-76
2022/03/19 00:06:59;;;;;;;;;;;;;;;;;;5114837;28;19961;-76
2022/03/19 00:09:25;;;;;;;;;;;;;;;;;;5114241;28;20018;-76
2022/03/19 00:11:54;;;;;;;;;;;;;;;;;;5114663;28;20254;-76
2022/03/19 00:14:19;;;;;;;;;;;;;;;;;;5114472;28;19916;-76
2022/03/19 00:16:46;;;;;;;;;;;;;;;;;;5114338;28;19916;-76
2022/03/19 00:19:11;;;;;;;;;;;;;;;;;;5112520;28;20406;-75
2022/03/19 00:21:37;;;;;;;;;;;;;;;;;;5113404;28;19959;-76
2022/03/19 00:24:04;;;;;;;;;;;;;;;;;;5112794;28;19923;-76
2022/03/19 00:26:30;;;;;;;;;;;;;;;;;;5113659;28;19916;-76
2022/03/19 00:28:56;;;;;;;;;;;;;;;;;;5114446;28;19916;-76
2022/03/19 00:31:22;;;;;;;;;;;;;;;;;;5113121;28;19923;-76
2022/03/19 00:33:47;;;;;;;;;;;;;;;;;;5113948;28;19927;-76
2022/03/19 00:36:12;;;;;;;;;;;;;;;;;;5114002;28;19919;-76
2022/03/19 00:38:38;;;;;;;;;;;;;;;;;;5113159;28;19920;-76
2022/03/19 00:41:03;;;;;;;;;;;;;;;;;;5114199;28;19922;-76
2022/03/19 00:43:29;;;;;;;;;;;;;;;;;;5112827;28;19938;-76
2022/03/19 00:45:54;;;;;;;;;;;;;;;;;;5114103;28;19923;-76
2022/03/19 00:48:19;;;;;;;;;;;;;;;;;;5114637;28;19915;-76
2022/03/19 00:50:45;;;;;;;;;;;;;;;;;;5118422;28;19916;-76
2022/03/19 00:53:10;;;;;;;;;;;;;;;;;;5117700;28;19968;-76
2022/03/19 00:55:36;;;;;;;;;;;;;;;;;;5118084;28;19920;-76
2022/03/19 00:58:01;;;;;;;;;;;;;;;;;;5118376;28;20419;-76
2022/03/19 01:00:27;;;;;;;;;;;;;;;;;;5117965;28;20382;-76
2022/03/19 01:02:53;;;;;;;;;;;;;;;;;;5117997;28;19916;-76
2022/03/19 01:05:18;;;;;;;;;;;;;;;;;;5118350;28;19941;-76
2022/03/19 01:07:45;;;;;;;;;;;;;;;;;;5117811;28;19947;-76
2022/03/19 01:10:12;;;;;;;;;;;;;;;;;;5117863;28;19961;-76
2022/03/19 01:12:38;;;;;;;;;;;;;;;;;;5118037;28;19970;-76
2022/03/19 01:15:03;;;;;;;;;;;;;;;;;;5117456;28;19963;-76
2022/03/19 01:17:29;;;;;;;;;;;;;;;;;;5117874;28;19939;-76
2022/03/19 01:19:54;;;;;;;;;;;;;;;;;;5117948;28;20319;-76
2022/03/19 01:22:23;;;;;;;;;;;;;;;;;;5117820;28;19943;-76
2022/03/19 01:24:49;;;;;;;;;;;;;;;;;;5117980;28;19915;-76
2022/03/19 01:27:14;;;;;;;;;;;;;;;;;;5117150;28;19916;-76
2022/03/19 01:29:40;;;;;;;;;;;;;;;;;;5117501;28;19965;-76
2022/03/19 01:32:05;;;;;;;;;;;;;;;;;;5117455;28;19973;-76
2022/03/19 01:34:30;;;;;;;;;;;;;;;;;;5116224;28;19926;-76
2022/03/19 01:36:57;;;;;;;;;;;;;;;;;;5117486;28;19916;-76
2022/03/19 01:39:22;;;;;;;;;;;;;;;;;;5117548;28;20396;-76
2022/03/19 01:41:48;;;;;;;;;;;;;;;;;;5116190;28;19923;-75
2022/03/19 01:44:21;;;;;;;;;;;;;;;;;;5117416;28;20334;-76
2022/03/19 01:47:10;;;;;;;;;;;;;;;;;;5116976;27;19955;-76
2022/03/19 01:49:35;;;;;;;;;;;;;;;;;;5117432;27;20318;-76
2022/03/19 01:52:02;;;;;;;;;;;;;;;;;;5117259;28;19955;-76
2022/03/19 01:54:28;;;;;;;;;;;;;;;;;;5115492;28;20311;-76
2022/03/19 01:56:54;;;;;;;;;;;;;;;;;;5116048;28;20336;-76
2022/03/19 01:59:21;;;;;;;;;;;;;;;;;;5115218;28;19966;-76
2022/03/19 02:01:47;;;;;;;;;;;;;;;;;;5117144;28;19951;-76
2022/03/19 02:04:12;;;;;;;;;;;;;;;;;;5116743;28;19939;-76
2022/03/19 02:06:40;;;;;;;;;;;;;;;;;;5117121;28;19916;-75
2022/03/19 02:09:05;;;;;;;;;;;;;;;;;;5117095;27;20288;-76
2022/03/19 02:11:31;;;;;;;;;;;;;;;;;;5116437;28;19920;-76
2022/03/19 02:13:56;;;;;;;;;;;;;;;;;;5116354;27;20026;-76
2022/03/19 02:16:21;;;;;;;;;;;;;;;;;;5116181;28;19924;-76
2022/03/19 02:18:48;;;;;;;;;;;;;;;;;;5097744;28;20119;-75
2022/03/19 02:21:14;;;;;;;;;;;;;;;;;;5116690;28;19915;-75
2022/03/19 02:26:23;;;;;;;;;;;;;;;;;;5116438;28;19923;-75
2022/03/19 02:28:49;;;;;;;;;;;;;;;;;;5115476;28;19916;-76
2022/03/19 02:31:14;;;;;;;;;;;;;;;;;;5116471;28;19923;-75
2022/03/19 02:33:40;;;;;;;;;;;;;;;;;;5116106;28;19919;-75
2022/03/19 02:36:08;;;;;;;;;;;;;;;;;;5116477;28;20010;-76
2022/03/19 02:38:33;;;;;;;;;;;;;;;;;;5114977;28;19916;-76
2022/03/19 02:41:02;;;;;;;;;;;;;;;;;;5115560;28;19923;-76
2022/03/19 02:43:27;;;;;;;;;;;;;;;;;;5116247;28;19950;-75
2022/03/19 02:45:52;;;;;;;;;;;;;;;;;;5116247;28;19959;-76
2022/03/19 02:48:18;;;;;;;;;;;;;;;;;;5116177;28;19916;-76
2022/03/19 02:50:43;;;;;;;;;;;;;;;;;;5116327;28;19981;-76
2022/03/19 02:53:10;;;;;;;;;;;;;;;;;;5116153;28;19916;-75
2022/03/19 02:55:39;;;;;;;;;;;;;;;;;;5115130;27;19919;-75
2022/03/19 02:58:06;;;;;;;;;;;;;;;;;;5116016;28;20287;-75
2022/03/19 03:00:31;;;;;;;;;;;;;;;;;;5114412;28;20350;-76
2022/03/19 03:02:57;;;;;;;;;;;;;;;;;;5115814;28;19942;-76
2022/03/19 03:05:22;;;;;;;;;;;;;;;;;;5115845;27;19934;-75
2022/03/19 03:07:47;;;;;;;;;;;;;;;;;;5115733;28;19915;-76
2022/03/19 03:10:14;;;;;;;;;;;;;;;;;;5115653;28;19915;-75
2022/03/19 03:12:39;;;;;;;;;;;;;;;;;;5113703;27;19959;-76
2022/03/19 03:15:07;;;;;;;;;;;;;;;;;;5115573;28;19924;-76
2022/03/19 03:17:33;;;;;;;;;;;;;;;;;;5116054;28;19916;-76
2022/03/19 03:19:59;;;;;;;;;;;;;;;;;;5114110;28;19923;-75
2022/03/19 03:22:24;;;;;;;;;;;;;;;;;;5115707;28;19916;-76
2022/03/19 03:24:50;;;;;;;;;;;;;;;;;;5115468;28;20010;-75
2022/03/19 03:27:15;;;;;;;;;;;;;;;;;;5114600;28;20382;-75
2022/03/19 03:29:41;;;;;;;;;;;;;;;;;;5115480;28;19915;-76
2022/03/19 03:32:08;;;;;;;;;;;;;;;;;;5115282;28;19920;-76
2022/03/19 03:34:33;;;;;;;;;;;;;;;;;;5114825;28;20135;-76
2022/03/19 03:36:58;;;;;;;;;;;;;;;;;;5115772;28;20011;-76
2022/03/19 03:39:24;;;;;;;;;;;;;;;;;;5115222;28;19916;-76
2022/03/19 03:41:49;;;;;;;;;;;;;;;;;;5114186;28;19922;-75
2022/03/19 03:44:15;;;;;;;;;;;;;;;;;;5113551;28;19967;-76
2022/03/19 03:46:40;;;;;;;;;;;;;;;;;;5114917;28;19915;-76
2022/03/19 03:49:05;;;;;;;;;;;;;;;;;;5114747;28;19981;-76
2022/03/19 03:51:31;;;;;;;;;;;;;;;;;;5114697;28;19942;-76
2022/03/19 03:53:56;;;;;;;;;;;;;;;;;;5112939;28;19916;-76
2022/03/19 03:56:22;;;;;;;;;;;;;;;;;;5113596;28;19926;-76
2022/03/19 03:58:47;;;;;;;;;;;;;;;;;;5114832;28;19920;-76
2022/03/19 04:01:14;;;;;;;;;;;;;;;;;;5114642;28;19915;-75
2022/03/19 04:03:39;;;;;;;;;;;;;;;;;;5114514;28;19923;-75
2022/03/19 04:06:04;;;;;;;;;;;;;;;;;;5114733;27;20437;-75
2022/03/19 04:08:30;;;;;;;;;;;;;;;;;;5114604;28;19922;-76
2022/03/19 04:10:55;;;;;;;;;;;;;;;;;;5114624;28;19954;-76
2022/03/19 04:13:20;;;;;;;;;;;;;;;;;;5114397;28;19916;-76
2022/03/19 04:15:46;;;;;;;;;;;;;;;;;;5114414;28;19920;-76
2022/03/19 04:18:13;;;;;;;;;;;;;;;;;;5114523;28;20379;-76
2022/03/19 04:20:41;;;;;;;;;;;;;;;;;;5114264;28;19916;-76
2022/03/19 04:23:07;;;;;;;;;;;;;;;;;;5113277;28;19953;-75
2022/03/19 04:25:32;;;;;;;;;;;;;;;;;;5114424;28;19996;-76
2022/03/19 04:27:58;;;;;;;;;;;;;;;;;;5114042;28;19915;-76
2022/03/19 04:30:27;;;;;;;;;;;;;;;;;;5113106;28;19916;-76
2022/03/19 04:32:53;;;;;;;;;;;;;;;;;;5114350;28;19967;-76
2022/03/19 04:38:04;;;;;;;;;;;;;;;;;;5114314;28;19915;-76
2022/03/19 04:40:30;;;;;;;;;;;;;;;;;;5114253;28;20002;-76
2022/03/19 04:42:56;;;;;;;;;;;;;;;;;;5113510;28;20061;-76
2022/03/19 04:45:22;;;;;;;;;;;;;;;;;;5112632;28;19920;-76
2022/03/19 04:47:47;;;;;;;;;;;;;;;;;;5113072;28;19923;-75
2022/03/19 04:50:13;;;;;;;;;;;;;;;;;;5114324;28;19916;-76
2022/03/19 04:52:38;;;;;;;;;;;;;;;;;;5114131;28;19916;-76
2022/03/19 04:55:04;;;;;;;;;;;;;;;;;;5113924;28;20026;-75
2022/03/19 04:57:30;;;;;;;;;;;;;;;;;;5113080;28;19916;-76
2022/03/19 04:59:56;;;;;;;;;;;;;;;;;;5114220;28;19919;-76
2022/03/19 05:02:24;;;;;;;;;;;;;;;;;;5112997;28;19943;-76
2022/03/19 05:04:54;;;;;;;;;;;;;;;;;;5113803;28;19916;-76
2022/03/19 05:07:20;;;;;;;;;;;;;;;;;;5112591;28;19916;-76
2022/03/19 05:12:37;;;;;;;;;;;;;;;;;;5114011;28;19916;-76
2022/03/19 05:15:03;;;;;;;;;;;;;;;;;;5114066;28;19920;-76
2022/03/19 05:17:29;;;;;;;;;;;;;;;;;;5113708;28;19916;-76
2022/03/19 05:19:54;;;;;;;;;;;;;;;;;;5113562;28;20258;-76
2022/03/19 05:22:20;;;;;;;;;;;;;;;;;;5113609;28;19970;-76
2022/03/19 05:24:45;;;;;;;;;;;;;;;;;;5113794;28;20053;-76
2022/03/19 05:27:11;;;;;;;;;;;;;;;;;;5112958;28;19916;-76
2022/03/19 05:29:38;;;;;;;;;;;;;;;;;;5112723;28;19923;-76
2022/03/19 05:32:04;;;;;;;;;;;;;;;;;;5113497;28;20053;-76
2022/03/19 05:34:29;;;;;;;;;;;;;;;;;;5114269;27;19923;-76
2022/03/19 05:36:55;;;;;;;;;;;;;;;;;;5116386;28;19915;-76
2022/03/19 05:39:20;;;;;;;;;;;;;;;;;;5117592;28;19915;-76
2022/03/19 05:41:45;;;;;;;;;;;;;;;;;;5116813;27;19923;-76
2022/03/19 05:44:11;;;;;;;;;;;;;;;;;;5117267;28;19972;-75
2022/03/19 05:46:36;;;;;;;;;;;;;;;;;;5117247;28;19916;-75
2022/03/19 05:49:01;;;;;;;;;;;;;;;;;;5115708;28;19973;-75
2022/03/19 05:51:26;;;;;;;;;;;;;;;;;;5117071;28;20375;-76
2022/03/19 05:53:52;;;;;;;;;;;;;;;;;;5115658;28;20425;-76
2022/03/19 05:56:18;;;;;;;;;;;;;;;;;;5115941;28;19923;-76
2022/03/19 05:58:44;;;;;;;;;;;;;;;;;;5117315;28;20361;-75
2022/03/19 06:01:09;;;;;;;;;;;;;;;;;;5117142;28;19916;-75
2022/03/19 06:03:35;;;;;;;;;;;;;;;;;;5116952;28;19981;-75
2022/03/19 06:06:00;;;;;;;;;;;;;;;;;;5117050;28;19917;-75
2022/03/19 06:08:25;;;;;;;;;;;;;;;;;;5116691;28;20052;-75
2022/03/19 06:10:51;;;;;;;;;;;;;;;;;;5115554;28;19922;-75
2022/03/19 06:13:16;;;;;;;;;;;;;;;;;;5114744;28;19960;-75
2022/03/19 06:15:41;;;;;;;;;;;;;;;;;;5116613;28;19923;-75
2022/03/19 06:18:07;;;;;;;;;;;;;;;;;;5117027;28;20452;-75
2022/03/19 06:20:32;;;;;;;;;;;;;;;;;;5116847;28;19916;-75
2022/03/19 06:22:58;;;;;;;;;;;;;;;;;;5116868;28;19915;-75
2022/03/19 06:25:24;;;;;;;;;;;;;;;;;;5116578;28;19915;-75
2022/03/19 06:27:49;;;;;;;;;;;;;;;;;;5116728;27;20034;-75
2022/03/19 06:30:16;;;;;;;;;;;;;;;;;;5116573;28;19941;-75
2022/03/19 06:32:43;;;;;;;;;;;;;;;;;;5098260;28;19926;-75
2022/03/19 06:35:09;;;;;;;;;;;;;;;;;;5116228;28;19920;-75
2022/03/19 06:37:35;;;;;;;;;;;;;;;;;;5116203;28;19951;-74
2022/03/19 06:40:06;;;;;;;;;;;;;;;;;;5116056;28;19970;-73
2022/03/19 06:42:34;;;;;;;;;;;;;;;;;;5115263;28;20014;-74
2022/03/19 06:45:00;;;;;;;;;;;;;;;;;;5116085;28;20258;-75
2022/03/19 06:47:25;;;;;;;;;;;;;;;;;;5115409;27;19969;-74
2022/03/19 06:49:51;;;;;;;;;;;;;;;;;;5116288;28;19920;-74
2022/03/19 06:52:16;;;;;;;;;;;;;;;;;;5116349;28;19969;-74
2022/03/19 06:54:41;;;;;;;;;;;;;;;;;;5114311;28;19920;-75
2022/03/19 06:57:07;;;;;;;;;;;;;;;;;;5116228;28;20350;-74
2022/03/19 06:59:33;;;;;;;;;;;;;;;;;;5115899;28;19982;-75
2022/03/19 07:01:58;;;;;;;;;;;;;;;;;;5116045;28;19968;-74
2022/03/19 07:04:24;;;;;;;;;;;;;;;;;;5115910;28;20327;-75
2022/03/19 07:06:49;;;;;;;;;;;;;;;;;;5115787;27;20300;-75
2022/03/19 07:09:14;;;;;;;;;;;;;;;;;;5114733;28;19969;-75
2022/03/19 07:11:40;;;;;;;;;;;;;;;;;;5115763;28;19915;-75
2022/03/19 07:14:05;;;;;;;;;;;;;;;;;;5115687;28;19920;-75
2022/03/19 07:16:31;;;;;;;;;;;;;;;;;;5115562;28;20399;-75
2022/03/19 07:18:56;;;;;;;;;;;;;;;;;;5115765;28;19960;-76
2022/03/19 07:21:22;;;;;;;;;;;;;;;;;;5115457;27;19919;-76
2022/03/19 07:23:48;;;;;;;;;;;;;;;;;;5115609;28;20410;-76
2022/03/19 07:26:13;;;;;;;;;;;;;;;;;;5115648;28;19916;-76
2022/03/19 07:28:38;;;;;;;;;;;;;;;;;;5115454;28;19962;-76
2022/03/19 07:31:04;;;;;;;;;;;;;;;;;;5115438;28;19923;-75
2022/03/19 07:33:33;;;;;;;;;;;;;;;;;;5115313;28;19964;-76
2022/03/19 07:35:59;;;;;;;;;;;;;;;;;;5115231;28;19920;-75
2022/03/19 07:38:24;;;;;;;;;;;;;;;;;;5115245;28;20266;-74
2022/03/19 07:43:34;;;;;;;;;;;;;;;;;;5115277;28;19922;-76
2022/03/19 07:45:59;;;;;;;;;;;;;;;;;;5115018;28;19915;-76
2022/03/19 07:48:24;;;;;;;;;;;;;;;;;;5115063;28;20406;-76
2022/03/19 07:50:50;;;;;;;;;;;;;;;;;;5115299;28;19916;-75
2022/03/19 07:53:15;;;;;;;;;;;;;;;;;;5114809;28;20006;-76
2022/03/19 07:55:40;;;;;;;;;;;;;;;;;;5114805;28;19919;-76
2022/03/19 07:58:06;;;;;;;;;;;;;;;;;;5114666;28;19916;-77
2022/03/19 08:00:32;;;;;;;;;;;;;;;;;;5114938;28;19970;-76
2022/03/19 08:02:57;;;;;;;;;;;;;;;;;;5115232;28;19915;-77
2022/03/19 08:05:23;;;;;;;;;;;;;;;;;;5115017;28;19919;-77
2022/03/19 08:07:48;;;;;;;;;;;;;;;;;;5115342;28;20014;-76
2022/03/19 08:10:14;;;;;;;;;;;;;;;;;;5113514;28;19959;-75
2022/03/19 08:12:41;;;;;;;;;;;;;;;;;;5114921;28;19968;-77
2022/03/19 08:15:07;;;;;;;;;;;;;;;;;;5114636;28;19920;-75
2022/03/19 08:17:33;;;;;;;;;;;;;;;;;;5113526;28;20321;-75
2022/03/19 08:19:58;;;;;;;;;;;;;;;;;;5113659;28;20581;-74
2022/03/19 08:22:27;;;;;;;;;;;;;;;;;;5114144;28;19922;-74
2022/03/19 08:24:52;;;;;;;;;;;;;;;;;;5113069;28;19964;-74
2022/03/19 08:27:17;;;;;;;;;;;;;;;;;;5114184;28;20014;-75
2022/03/19 08:29:43;;;;;;;;;;;;;;;;;;5114332;28;19916;-76
2022/03/19 08:32:10;;;;;;;;;;;;;;;;;;5114178;28;20002;-74
2022/03/19 08:34:36;;;;;;;;;;;;;;;;;;5112988;28;20008;-74
2022/03/19 08:37:01;;;;;;;;;;;;;;;;;;5114219;27;20012;-77
2022/03/19 08:42:11;;;;;;;;;;;;;;;;;;5114042;28;19923;-76
2022/03/19 08:44:36;;;;;;;;;;;;;;;;;;5114293;28;19915;-77
2022/03/19 08:47:01;;;;;;;;;;;;;;;;;;5114418;28;19915;-77
2022/03/19 08:49:27;;;;;;;;;;;;;;;;;;5114135;28;19919;-76
2022/03/19 08:51:52;;;;;;;;;;;;;;;;;;5114157;28;19916;-75
2022/03/19 08:54:19;;;;;;;;;;;;;;;;;;5112619;28;19916;-75
2022/03/19 08:56:45;;;;;;;;;;;;;;;;;;5114007;28;19920;-75
2022/03/19 08:59:11;;;;;;;;;;;;;;;;;;5114111;28;20006;-76
2022/03/19 09:01:37;;;;;;;;;;;;;;;;;;5113892;28;20022;-76
2022/03/19 09:04:03;;;;;;;;;;;;;;;;;;5114079;28;19911;-77
2022/03/19 09:06:28;;;;;;;;;;;;;;;;;;5113990;28;19916;-77
2022/03/19 09:08:54;;;;;;;;;;;;;;;;;;5113911;27;19959;-77
2022/03/19 09:11:19;;;;;;;;;;;;;;;;;;5117914;28;19924;-76
2022/03/19 09:13:48;;;;;;;;;;;;;;;;;;5118173;27;19983;-76
2022/03/19 09:16:14;;;;;;;;;;;;;;;;;;5117880;28;19955;-76
2022/03/19 09:18:39;;;;;;;;;;;;;;;;;;5117864;28;19923;-77
2022/03/19 09:21:05;;;;;;;;;;;;;;;;;;5117230;28;19925;-77
2022/03/19 09:23:30;;;;;;;;;;;;;;;;;;5118123;28;20377;-77
2022/03/19 09:25:56;;;;;;;;;;;;;;;;;;5117072;28;19922;-77
2022/03/19 09:28:21;;;;;;;;;;;;;;;;;;5117998;28;20273;-77
2022/03/19 09:30:46;;;;;;;;;;;;;;;;;;5118113;28;19922;-77
2022/03/19 09:33:12;;;;;;;;;;;;;;;;;;5117558;28;20379;-77
2022/03/19 09:35:37;;;;;;;;;;;;;;;;;;5117353;28;19924;-77
2022/03/19 09:38:02;;;;;;;;;;;;;;;;;;5117927;28;20011;-77
2022/03/19 09:40:28;;;;;;;;;;;;;;;;;;5117068;28;19923;-77
2022/03/19 09:42:54;;;;;;;;;;;;;;;;;;5117252;28;19994;-76
2022/03/19 09:45:20;;;;;;;;;;;;;;;;;;5117274;28;20370;-77
2022/03/19 09:47:46;;;;;;;;;;;;;;;;;;5117361;28;19961;-77
2022/03/19 09:50:11;;;;;;;;;;;;;;;;;;5117348;28;19923;-77
2022/03/19 09:52:37;;;;;;;;;;;;;;;;;;5117101;28;19916;-77
2022/03/19 09:55:03;;;;;;;;;;;;;;;;;;5117444;28;20362;-78
2022/03/19 09:57:29;;;;;;;;;;;;;;;;;;5117645;28;20011;-75
2022/03/19 09:59:54;;;;;;;;;;;;;;;;;;5117644;27;19916;-75
2022/03/19 10:02:20;;;;;;;;;;;;;;;;;;5117050;27;19923;-76
2022/03/19 10:04:45;;;;;;;;;;;;;;;;;;5117172;28;19916;-75
2022/03/19 10:09:56;;;;;;;;;;;;;;;;;;5117075;28;19916;-78
2022/03/19 10:12:27;;;;;;;;;;;;;;;;;;5117638;27;19924;-78
2022/03/19 10:14:53;;;;;;;;;;;;;;;;;;5117625;28;19912;-78
2022/03/19 10:17:26;;;;;;;;;;;;;;;;;;5118013;28;20020;-78
2022/03/19 10:19:52;;;;;;;;;;;;;;;;;;5119105;28;19920;-78
2022/03/19 10:22:23;;;;;;;;;;;;;;;;;;5120386;28;20011;-79
2022/03/19 10:24:54;;;;;;;;;;;;;;;;;;5115745;28;19915;-78
2022/03/19 10:27:19;;;;;;;;;;;;;;;;;;5116849;28;19916;-77
2022/03/19 10:29:45;;;;;;;;;;;;;;;;;;5115514;28;20399;-77
2022/03/19 10:32:12;;;;;;;;;;;;;;;;;;5116341;28;19972;-77
2022/03/19 10:34:40;;;;;;;;;;;;;;;;;;5116441;28;20400;-77
2022/03/19 10:37:05;;;;;;;;;;;;;;;;;;5115407;28;19969;-76
2022/03/19 10:39:31;;;;;;;;;;;;;;;;;;5116713;27;19920;-77
2022/03/19 10:41:57;;;;;;;;;;;;;;;;;;5116994;28;19916;-78
2022/03/19 10:44:27;;;;;;;;;;;;;;;;;;5116660;27;19926;-77
2022/03/19 10:46:56;;;;;;;;;;;;;;;;;;5116883;28;19926;-77
2022/03/19 10:49:23;;;;;;;;;;;;;;;;;;5116618;27;19920;-77
2022/03/19 10:51:50;;;;;;;;;;;;;;;;;;5116133;28;19962;-77
2022/03/19 10:54:15;;;;;;;;;;;;;;;;;;5116067;28;20337;-76
2022/03/19 10:56:42;;;;;;;;;;;;;;;;;;5117290;28;19996;-78
2022/03/19 10:59:08;;;;;;;;;;;;;;;;;;5115703;28;19923;-76
2022/03/19 11:01:35;;;;;;;;;;;;;;;;;;5116154;27;19923;-77
2022/03/19 11:04:01;;;;;;;;;;;;;;;;;;5114989;28;19916;-77
2022/03/19 11:06:27;;;;;;;;;;;;;;;;;;5116042;28;19923;-77
2022/03/19 11:08:54;;;;;;;;;;;;;;;;;;5115827;28;19920;-76
2022/03/19 11:11:27;;;;;;;;;;;;;;;;;;5115855;28;19916;-76
2022/03/19 11:13:54;;;;;;;;;;;;;;;;;;5115593;27;19915;-76
2022/03/19 11:16:21;;;;;;;;;;;;;;;;;;5115722;28;19919;-77
2022/03/19 11:18:47;;;;;;;;;;;;;;;;;;5115696;28;19916;-77
2022/03/19 11:21:14;;;;;;;;;;;;;;;;;;5114485;28;19923;-77
2022/03/19 11:24:04;;;;;;;;;;;;;;;;;;5114387;28;19912;-77
2022/03/19 11:26:33;;;;;;;;;;;;;;;;;;5114120;28;19947;-76
2022/03/19 11:28:58;;;;;;;;;;;;;;;;;;5115410;28;20404;-77
2022/03/19 11:31:29;;;;;;;;;;;;;;;;;;5115423;28;20396;-76
2022/03/19 11:34:20;;;;;;;;;;;;;;;;;;5114448;27;20410;-76
2022/03/19 11:36:53;;;;;;;;;;;;;;;;;;5113010;28;19920;-75
2022/03/19 11:39:19;;;;;;;;;;;;;;;;;;5115335;28;19915;-76
2022/03/19 11:41:47;;;;;;;;;;;;;;;;;;5115897;28;20368;-76
2022/03/19 11:44:17;;;;;;;;;;;;;;;;;;5115282;28;20382;-76
2022/03/19 11:46:57;;;;;;;;;;;;;;;;;;5114886;28;19920;-76
2022/03/19 11:49:42;;;;;;;;;;;;;;;;;;5115488;28;19915;-76
2022/03/19 11:52:08;;;;;;;;;;;;;;;;;;5114850;28;19935;-75
2022/03/19 11:54:54;;;;;;;;;;;;;;;;;;5114798;28;19912;-76
2022/03/19 11:57:20;;;;;;;;;;;;;;;;;;5114867;28;19955;-76
2022/03/19 11:59:46;;;;;;;;;;;;;;;;;;5115153;28;19912;-77
2022/03/19 12:02:12;;;;;;;;;;;;;;;;;;5115869;28;20018;-77
2022/03/19 12:04:58;;;;;;;;;;;;;;;;;;5115648;28;19959;-77
2022/03/19 12:07:40;;;;;;;;;;;;;;;;;;5113614;28;19919;-77
2022/03/19 12:10:11;;;;;;;;;;;;;;;;;;5096619;28;19966;-77
2022/03/19 12:12:36;;;;;;;;;;;;;;;;;;5114394;28;19916;-76
2022/03/19 12:15:21;;;;;;;;;;;;;;;;;;5115326;28;19924;-80
2022/03/19 12:17:46;;;;;;;;;;;;;;;;;;5116440;28;19965;-80
2022/03/19 12:20:11;;;;;;;;;;;;;;;;;;5115953;28;19919;-78
2022/03/19 12:22:38;;;;;;;;;;;;;;;;;;5116293;28;19915;-78
2022/03/19 12:25:13;;;;;;;;;;;;;;;;;;5116293;28;19915;-77
2022/03/19 12:27:39;;;;;;;;;;;;;;;;;;5115967;28;20398;-81
2022/03/19 12:30:12;;;;;;;;;;;;;;;;;;5120585;28;19951;-79
2022/03/19 12:32:49;;;;;;;;;;;;;;;;;;5115216;28;19927;-78
2022/03/19 12:35:16;;;;;;;;;;;;;;;;;;5119768;28;19920;-79
2022/03/19 12:37:52;;;;;;;;;;;;;;;;;;5119030;28;19922;-79
2022/03/19 12:40:22;;;;;;;;;;;;;;;;;;5118338;28;20475;-79
2022/03/19 12:42:54;;;;;;;;;;;;;;;;;;5117669;28;19922;-78
2022/03/19 12:45:34;;;;;;;;;;;;;;;;;;5117399;28;19915;-78
2022/03/19 12:47:59;;;;;;;;;;;;;;;;;;5118676;28;20393;-78
2022/03/19 12:50:25;;;;;;;;;;;;;;;;;;5116358;28;19923;-79
2022/03/19 12:52:50;;;;;;;;;;;;;;;;;;5118167;28;19919;-79
2022/03/19 12:55:20;;;;;;;;;;;;;;;;;;5119038;28;19966;-78
2022/03/19 12:57:55;;;;;;;;;;;;;;;;;;5118504;28;20364;-78
2022/03/19 13:00:20;;;;;;;;;;;;;;;;;;5116809;28;20262;-78
2022/03/19 13:02:48;;;;;;;;;;;;;;;;;;5121082;28;20004;-80
2022/03/19 13:05:15;;;;;;;;;;;;;;;;;;5121804;28;19922;-80
2022/03/19 13:07:58;;;;;;;;;;;;;;;;;;5122344;28;19987;-78
2022/03/19 13:10:24;;;;;;;;;;;;;;;;;;5119023;28;19920;-78
2022/03/19 13:13:03;;;;;;;;;;;;;;;;;;5124866;28;19915;-79
2022/03/19 13:15:28;;;;;;;;;;;;;;;;;;5121818;27;19967;-78
2022/03/19 13:17:53;;;;;;;;;;;;;;;;;;5116977;28;19939;-76
2022/03/19 13:20:18;;;;;;;;;;;;;;;;;;5114532;28;19916;-76
2022/03/19 13:22:44;;;;;;;;;;;;;;;;;;5114284;28;19923;-76
2022/03/19 13:25:10;;;;;;;;;;;;;;;;;;5113824;28;20342;-75
2022/03/19 13:27:36;;;;;;;;;;;;;;;;;;5112730;28;19916;-75
2022/03/19 13:30:10;;;;;;;;;;;;;;;;;;5112672;28;20452;-76
2022/03/19 13:32:35;;;;;;;;;;;;;;;;;;5112166;28;19920;-76
2022/03/19 13:35:01;;;;;;;;;;;;;;;;;;5094568;28;19922;-76
2022/03/19 13:37:34;;;;;;;;;;;;;;;;;;5113365;28;19963;-76
2022/03/19 13:40:00;;;;;;;;;;;;;;;;;;5113379;28;19922;-75
2022/03/19 13:42:29;;;;;;;;;;;;;;;;;;5112529;28;20357;-75
2022/03/19 13:45:04;;;;;;;;;;;;;;;;;;5111347;28;20006;-75
2022/03/19 13:47:41;;;;;;;;;;;;;;;;;;5112631;28;19919;-75
2022/03/19 13:50:08;;;;;;;;;;;;;;;;;;5113773;28;19961;-75
2022/03/19 13:52:43;;;;;;;;;;;;;;;;;;5113373;28;20342;-75
2022/03/19 13:55:10;;;;;;;;;;;;;;;;;;5112004;28;19965;-75
2022/03/19 13:57:36;;;;;;;;;;;;;;;;;;5116779;28;19916;-75
2022/03/19 14:00:12;;;;;;;;;;;;;;;;;;5097861;28;20119;-75
2022/03/19 14:02:50;;;;;;;;;;;;;;;;;;5115017;28;19923;-75
2022/03/19 14:05:19;;;;;;;;;;;;;;;;;;5115915;28;19919;-75
2022/03/19 14:07:45;;;;;;;;;;;;;;;;;;5115648;28;19964;-75
2022/03/19 14:10:10;;;;;;;;;;;;;;;;;;5116051;28;19919;-75
2022/03/19 14:12:40;;;;;;;;;;;;;;;;;;5114707;28;19922;-75
2022/03/19 14:15:06;;;;;;;;;;;;;;;;;;5114350;28;19920;-75
2022/03/19 14:17:41;;;;;;;;;;;;;;;;;;5110001;28;20132;-75
2022/03/19 14:20:07;;;;;;;;;;;;;;;;;;5095189;28;19923;-75
2022/03/19 14:22:32;;;;;;;;;;;;;;;;;;5095276;28;19920;-75
2022/03/19 14:24:59;;;;;;;;;;;;;;;;;;5095661;28;19916;-75
2022/03/19 14:27:24;;;;;;;;;;;;;;;;;;5095486;28;19942;-75
2022/03/19 14:29:50;;;;;;;;;;;;;;;;;;5095611;28;19923;-75
2022/03/19 14:32:15;;;;;;;;;;;;;;;;;;5034223;28;1729637;-75
2022/03/19 14:34:40;;;;;;;;;;;;;;;;;;5096335;28;19924;-75
2022/03/19 14:37:05;;;;;;;;;;;;;;;;;;5096327;28;19920;-75
2022/03/19 14:39:31;;;;;;;;;;;;;;;;;;5094886;28;19916;-75
2022/03/19 14:41:59;;;;;;;;;;;;;;;;;;5094980;28;19999;-75
2022/03/19 14:44:24;;;;;;;;;;;;;;;;;;5096132;28;20067;-74
2022/03/19 14:46:50;;;;;;;;;;;;;;;;;;5096124;28;19920;-74
2022/03/19 14:49:15;;;;;;;;;;;;;;;;;;5115244;28;19915;-75
2022/03/19 14:51:40;;;;;;;;;;;;;;;;;;5115188;28;19920;-75
2022/03/19 14:54:06;;;;;;;;;;;;;;;;;;5116095;28;19915;-75
2022/03/19 14:56:34;;;;;;;;;;;;;;;;;;5116116;27;19923;-75
2022/03/19 14:59:00;;;;;;;;;;;;;;;;;;5116120;28;19916;-74
2022/03/19 15:01:25;;;;;;;;;;;;;;;;;;5116099;28;19968;-75
2022/03/19 15:03:51;;;;;;;;;;;;;;;;;;5116277;28;19916;-75
2022/03/19 15:06:16;;;;;;;;;;;;;;;;;;5115551;28;19912;-74
2022/03/19 15:08:42;;;;;;;;;;;;;;;;;;5113865;28;20371;-75
2022/03/19 15:11:07;;;;;;;;;;;;;;;;;;5116064;28;19915;-75
2022/03/19 15:13:33;;;;;;;;;;;;;;;;;;5114097;28;19916;-75
2022/03/19 15:15:59;;;;;;;;;;;;;;;;;;5114402;28;19926;-74
2022/03/19 15:18:28;;;;;;;;;;;;;;;;;;5115768;28;19915;-74
2022/03/19 15:20:54;;;;;;;;;;;;;;;;;;5114544;28;19922;-75
2022/03/19 15:23:19;;;;;;;;;;;;;;;;;;5114410;28;19915;-75
2022/03/19 15:25:46;;;;;;;;;;;;;;;;;;5115531;28;19941;-75
2022/03/19 15:28:11;;;;;;;;;;;;;;;;;;5115580;28;19916;-74
2022/03/19 15:30:37;;;;;;;;;;;;;;;;;;5114411;28;19923;-74
2022/03/19 15:33:02;;;;;;;;;;;;;;;;;;5115059;28;19947;-75
2022/03/19 15:35:30;;;;;;;;;;;;;;;;;;5115296;28;20041;-75
2022/03/19 15:38:01;;;;;;;;;;;;;;;;;;5116054;27;20234;-75
2022/03/19 15:40:30;;;;;;;;;;;;;;;;;;5115754;28;20282;-76
2022/03/19 15:42:56;;;;;;;;;;;;;;;;;;5116241;28;19923;-76
2022/03/19 15:45:21;;;;;;;;;;;;;;;;;;5115017;28;19915;-76
2022/03/19 15:47:47;;;;;;;;;;;;;;;;;;5114638;28;19924;-76
2022/03/19 15:50:12;;;;;;;;;;;;;;;;;;5112720;28;19919;-76
2022/03/19 15:52:38;;;;;;;;;;;;;;;;;;5113848;28;19923;-76
2022/03/19 15:55:04;;;;;;;;;;;;;;;;;;5112642;28;19915;-76
2022/03/19 15:57:29;;;;;;;;;;;;;;;;;;5114755;28;19985;-76
2022/03/19 15:59:54;;;;;;;;;;;;;;;;;;5114089;27;19912;-76
2022/03/19 16:02:20;;;;;;;;;;;;;;;;;;5113817;28;19922;-76
2022/03/19 16:04:45;;;;;;;;;;;;;;;;;;5114211;28;19916;-78
2022/03/19 16:07:11;;;;;;;;;;;;;;;;;;5113089;28;20388;-77
2022/03/19 16:09:37;;;;;;;;;;;;;;;;;;5113337;28;20270;-77
2022/03/19 16:12:02;;;;;;;;;;;;;;;;;;5110081;28;20381;-77
2022/03/19 16:14:30;;;;;;;;;;;;;;;;;;5104046;28;19916;-77
2022/03/19 16:16:55;;;;;;;;;;;;;;;;;;5095791;28;19928;-77
2022/03/19 16:19:21;;;;;;;;;;;;;;;;;;5099852;28;19916;-77
2022/03/19 16:21:46;;;;;;;;;;;;;;;;;;5102577;28;20374;-77
2022/03/19 16:24:12;;;;;;;;;;;;;;;;;;5107182;28;19942;-77
2022/03/19 16:26:38;;;;;;;;;;;;;;;;;;5101490;28;19924;-77
2022/03/19 16:29:04;;;;;;;;;;;;;;;;;;5104735;28;19963;-77
2022/03/19 16:31:29;;;;;;;;;;;;;;;;;;5107675;28;19953;-78
2022/03/19 16:33:54;;;;;;;;;;;;;;;;;;5101747;28;19923;-78
2022/03/19 16:36:19;;;;;;;;;;;;;;;;;;5107726;28;19926;-77
2022/03/19 16:38:45;;;;;;;;;;;;;;;;;;5104202;28;19922;-77
2022/03/19 16:41:10;;;;;;;;;;;;;;;;;;5101520;28;19991;-78
2022/03/19 16:43:35;;;;;;;;;;;;;;;;;;5107395;28;19956;-77
2022/03/19 16:46:02;;;;;;;;;;;;;;;;;;5101699;28;19946;-77
2022/03/19 16:48:28;;;;;;;;;;;;;;;;;;5104492;28;19923;-77
2022/03/19 16:50:53;;;;;;;;;;;;;;;;;;5096603;28;20301;-77
2022/03/19 16:53:19;;;;;;;;;;;;;;;;;;5093685;28;19916;-77
2022/03/19 16:55:45;;;;;;;;;;;;;;;;;;5093774;28;19920;-78
2022/03/19 16:58:10;;;;;;;;;;;;;;;;;;5093719;28;19923;-78
2022/03/19 17:00:35;;;;;;;;;;;;;;;;;;5093814;28;19916;-77